createdAt,value
2022-11-30T00:01:12.070Z,32.60
2022-11-30T00:03:41.375Z,33.57
2022-11-30T00:06:11.927Z,29.87
2022-11-30T00:08:40.022Z,32.37
2022-11-30T00:11:12.503Z,32.50
2022-11-30T00:13:40.841Z,27.03
2022-11-30T00:16:09.616Z,29.63
2022-11-30T00:18:38.126Z,27.67
2022-11-30T00:21:08.941Z,30.90
2022-11-30T00:23:39.213Z,32.20
2022-11-30T00:26:09.766Z,30.50
2022-11-30T00:28:38.857Z,33.27
2022-11-30T00:31:08.731Z,30.07
2022-11-30T00:33:38.185Z,29.93
2022-11-30T00:36:10.089Z,28.20
2022-11-30T00:38:37.950Z,29.40
2022-11-30T00:41:06.133Z,30.50
2022-11-30T00:43:33.985Z,29.77
2022-11-30T00:46:02.129Z,30.07
2022-11-30T00:48:30.030Z,31.43
2022-11-30T00:50:57.889Z,31.43
2022-11-30T00:53:27.222Z,32.07
2022-11-30T00:55:55.014Z,33.23
2022-11-30T00:58:22.950Z,30.97
2022-11-30T01:00:50.939Z,31.03
2022-11-30T01:03:18.814Z,29.80
2022-11-30T01:05:46.654Z,25.37
2022-11-30T01:08:14.671Z,32.00
2022-11-30T01:10:45.233Z,33.10
2022-11-30T01:13:14.183Z,33.50
2022-11-30T01:15:44.690Z,30.13
2022-11-30T01:18:13.274Z,30.30
2022-11-30T01:20:42.278Z,33.60
2022-11-30T01:23:10.554Z,33.83
2022-11-30T01:25:38.573Z,36.63
2022-11-30T01:28:09.773Z,37.40
2022-11-30T01:30:37.803Z,34.50
2022-11-30T01:33:06.089Z,39.83
2022-11-30T01:35:34.030Z,29.27
2022-11-30T01:38:01.840Z,36.77
2022-11-30T01:40:29.720Z,35.37
2022-11-30T01:42:57.542Z,35.80
2022-11-30T01:45:26.871Z,38.83
2022-11-30T01:47:58.309Z,38.13
2022-11-30T01:50:30.067Z,37.33
2022-11-30T01:52:58.766Z,35.47
2022-11-30T01:55:30.463Z,31.07
2022-11-30T01:58:01.734Z,33.07
2022-11-30T02:00:31.254Z,32.67
2022-11-30T02:03:02.647Z,30.77
2022-11-30T02:05:31.096Z,32.00
2022-11-30T02:07:59.064Z,33.63
2022-11-30T02:10:30.119Z,30.13
2022-11-30T02:13:25.836Z,27.73
2022-11-30T02:16:05.261Z,33.53
2022-11-30T02:18:43.580Z,35.23
2022-11-30T02:21:16.532Z,29.40
2022-11-30T02:24:07.362Z,35.23
2022-11-30T02:26:50.297Z,32.70
2022-11-30T02:29:22.501Z,33.37
2022-11-30T02:31:56.097Z,32.50
2022-11-30T02:34:27.167Z,31.40
2022-11-30T02:36:58.127Z,33.63
2022-11-30T02:39:26.013Z,31.63
2022-11-30T02:41:53.804Z,32.53
2022-11-30T02:44:25.225Z,33.43
2022-11-30T02:47:13.633Z,35.07
2022-11-30T02:49:50.553Z,32.70
2022-11-30T02:52:19.824Z,31.80
2022-11-30T02:54:47.973Z,36.50
2022-11-30T02:57:16.033Z,30.53
2022-11-30T02:59:45.317Z,28.00
2022-11-30T03:02:13.795Z,33.60
2022-11-30T03:04:41.603Z,33.30
2022-11-30T03:07:09.521Z,35.97
2022-11-30T03:09:37.360Z,34.37
2022-11-30T03:12:05.386Z,34.17
2022-11-30T03:14:33.214Z,32.47
2022-11-30T03:17:02.360Z,33.27
2022-11-30T03:19:30.222Z,31.53
2022-11-30T03:21:58.089Z,32.07
2022-11-30T03:24:25.957Z,33.60
2022-11-30T03:26:54.159Z,33.67
2022-11-30T03:29:22.041Z,32.33
2022-11-30T03:31:49.947Z,32.77
2022-11-30T03:34:19.146Z,35.80
2022-11-30T03:36:46.983Z,36.10
2022-11-30T03:39:14.834Z,33.47
2022-11-30T03:41:42.690Z,30.03
2022-11-30T03:44:10.514Z,33.43
2022-11-30T03:46:38.454Z,31.50
2022-11-30T03:49:06.301Z,31.73
2022-11-30T03:51:35.567Z,37.78
2022-11-30T03:54:03.410Z,33.50
2022-11-30T03:56:31.239Z,34.20
2022-11-30T03:58:59.309Z,35.20
2022-11-30T04:01:28.138Z,37.60
2022-11-30T04:03:56.065Z,41.67
2022-11-30T04:06:23.889Z,31.20
2022-11-30T04:08:53.030Z,36.60
2022-11-30T04:11:20.981Z,32.67
2022-11-30T04:13:48.805Z,35.27
2022-11-30T04:16:16.770Z,36.80
2022-11-30T04:18:44.584Z,34.93
2022-11-30T04:21:12.540Z,32.97
2022-11-30T04:23:41.488Z,32.80
2022-11-30T04:26:13.607Z,32.87
2022-11-30T04:28:41.592Z,39.13
2022-11-30T04:31:10.528Z,39.60
2022-11-30T04:33:38.616Z,37.40
2022-11-30T04:36:08.089Z,34.03
2022-11-30T04:38:37.602Z,32.00
2022-11-30T04:41:08.761Z,31.80
2022-11-30T04:43:38.063Z,34.03
2022-11-30T04:46:06.879Z,31.50
2022-11-30T04:48:35.128Z,36.67
2022-11-30T04:51:03.394Z,32.07
2022-11-30T04:53:31.218Z,34.73
2022-11-30T04:55:59.119Z,33.10
2022-11-30T04:58:26.950Z,30.67
2022-11-30T05:00:56.337Z,32.97
2022-11-30T05:03:24.146Z,31.23
2022-11-30T05:05:51.998Z,35.87
2022-11-30T05:08:20.290Z,37.83
2022-11-30T05:10:53.210Z,37.23
2022-11-30T05:13:21.416Z,33.13
2022-11-30T05:15:49.284Z,35.23
2022-11-30T05:18:18.516Z,38.67
2022-11-30T05:20:49.154Z,38.67
2022-11-30T05:23:17.526Z,36.77
2022-11-30T05:25:45.628Z,36.53
2022-11-30T05:28:13.749Z,35.17
2022-11-30T05:30:42.087Z,37.20
2022-11-30T05:33:10.406Z,33.17
2022-11-30T05:35:39.886Z,33.70
2022-11-30T05:38:10.328Z,38.90
2022-11-30T05:40:38.174Z,32.27
2022-11-30T05:43:06.860Z,31.63
2022-11-30T05:45:34.826Z,30.17
2022-11-30T05:48:02.683Z,35.87
2022-11-30T05:50:30.789Z,31.10
2022-11-30T05:53:01.013Z,29.47
2022-11-30T05:55:31.070Z,30.27
2022-11-30T05:57:59.100Z,31.53
2022-11-30T06:00:27.077Z,31.20
2022-11-30T06:02:58.377Z,29.90
2022-11-30T06:05:27.047Z,32.30
2022-11-30T06:07:55.172Z,30.93
2022-11-30T06:10:27.227Z,29.83
2022-11-30T06:12:55.205Z,28.20
2022-11-30T06:15:23.199Z,29.97
2022-11-30T06:17:51.131Z,30.47
2022-11-30T06:20:19.112Z,30.77
2022-11-30T06:22:47.776Z,33.37
2022-11-30T06:25:16.010Z,27.80
2022-11-30T06:27:45.368Z,30.20
2022-11-30T06:30:14.383Z,36.73
2022-11-30T06:32:55.110Z,30.30
2022-11-30T06:35:23.056Z,30.83
2022-11-30T06:37:50.970Z,30.70
2022-11-30T06:40:18.877Z,32.93
2022-11-30T06:42:48.661Z,31.70
2022-11-30T06:45:16.733Z,31.17
2022-11-30T06:47:45.830Z,33.73
2022-11-30T06:50:16.523Z,29.63
2022-11-30T06:52:44.494Z,26.37
2022-11-30T06:55:12.447Z,31.77
2022-11-30T06:57:40.385Z,31.20
2022-11-30T07:00:12.499Z,34.77
2022-11-30T07:02:40.810Z,32.20
2022-11-30T07:05:09.129Z,32.47
2022-11-30T07:07:37.126Z,30.50
2022-11-30T07:10:05.356Z,30.90
2022-11-30T07:12:35.952Z,31.47
2022-11-30T07:15:03.937Z,29.13
2022-11-30T07:17:33.216Z,29.90
2022-11-30T07:20:01.194Z,30.73
2022-11-30T07:22:29.107Z,31.10
2022-11-30T07:25:14.370Z,33.03
2022-11-30T07:27:42.510Z,32.50
2022-11-30T07:30:11.571Z,32.57
2022-11-30T07:32:41.190Z,33.33
2022-11-30T07:35:09.598Z,33.03
2022-11-30T07:37:37.540Z,31.30
2022-11-30T07:40:06.439Z,31.93
2022-11-30T07:42:34.370Z,32.97
2022-11-30T07:45:02.328Z,31.67
2022-11-30T07:47:30.261Z,30.40
2022-11-30T07:49:59.428Z,31.57
2022-11-30T07:52:27.420Z,32.33
2022-11-30T07:54:55.272Z,29.17
2022-11-30T07:57:23.298Z,30.70
2022-11-30T07:59:51.252Z,30.77
2022-11-30T08:02:19.911Z,33.10
2022-11-30T08:04:48.542Z,31.13
2022-11-30T08:07:18.077Z,33.93
2022-11-30T08:09:46.120Z,31.57
2022-11-30T08:12:14.008Z,28.97
2022-11-30T08:15:17.502Z,30.30
2022-11-30T08:17:29.822Z,29.90
2022-11-30T08:19:57.730Z,27.40
2022-11-30T08:22:26.957Z,29.50
2022-11-30T08:24:54.886Z,33.03
2022-11-30T08:27:22.761Z,31.77
2022-11-30T08:29:50.728Z,32.37
2022-11-30T08:32:18.696Z,30.40
2022-11-30T08:34:46.995Z,31.30
2022-11-30T08:37:15.074Z,31.53
2022-11-30T08:39:44.401Z,35.37
2022-11-30T08:42:12.317Z,29.57
2022-11-30T08:44:40.232Z,28.80
2022-11-30T08:47:08.439Z,31.20
2022-11-30T08:49:36.472Z,30.13
2022-11-30T08:52:19.841Z,29.93
2022-11-30T08:54:49.508Z,31.33
2022-11-30T08:57:18.851Z,29.57
2022-11-30T08:59:47.442Z,29.10
2022-11-30T09:02:18.373Z,27.30
2022-11-30T09:04:48.901Z,28.60
2022-11-30T09:07:17.219Z,26.57
2022-11-30T09:09:45.140Z,27.80
2022-11-30T09:12:14.344Z,27.70
2022-11-30T09:14:42.605Z,30.30
2022-11-30T09:17:10.862Z,26.97
2022-11-30T09:19:38.953Z,26.80
2022-11-30T09:22:07.121Z,30.37
2022-11-30T09:24:35.223Z,26.63
2022-11-30T09:27:03.322Z,27.80
2022-11-30T09:29:32.860Z,30.17
2022-11-30T09:32:01.271Z,27.67
2022-11-30T09:34:29.610Z,25.80
2022-11-30T09:36:57.904Z,27.30
2022-11-30T09:39:26.720Z,30.57
2022-11-30T09:42:24.690Z,23.80
2022-11-30T09:45:03.433Z,31.67
2022-11-30T09:47:57.607Z,26.57
2022-11-30T09:50:29.055Z,26.47
2022-11-30T09:53:00.454Z,26.90
2022-11-30T09:55:32.167Z,26.60
2022-11-30T09:58:03.756Z,24.50
2022-11-30T10:00:34.857Z,26.87
2022-11-30T10:03:05.761Z,23.67
2022-11-30T10:05:47.941Z,25.90
2022-11-30T10:08:38.529Z,23.53
2022-11-30T10:11:23.201Z,29.63
2022-11-30T10:14:02.760Z,25.40
2022-11-30T10:16:42.946Z,28.30
2022-11-30T10:19:23.535Z,27.13
2022-11-30T10:22:03.775Z,31.00
2022-11-30T10:24:45.487Z,30.47
2022-11-30T10:27:18.718Z,32.30
2022-11-30T10:29:46.582Z,33.30
2022-11-30T10:32:21.034Z,33.37
2022-11-30T10:34:52.736Z,34.27
2022-11-30T10:37:23.804Z,27.90
2022-11-30T10:40:02.062Z,32.77
2022-11-30T10:42:35.405Z,40.00
2022-11-30T10:45:09.305Z,38.70
2022-11-30T10:47:44.058Z,36.80
2022-11-30T10:50:16.027Z,36.57
2022-11-30T10:52:47.896Z,35.93
2022-11-30T10:55:21.129Z,30.57
2022-11-30T10:57:52.260Z,32.93
2022-11-30T11:00:21.081Z,33.50
2022-11-30T11:02:52.059Z,37.20
2022-11-30T11:05:22.906Z,33.60
2022-11-30T11:08:04.703Z,40.07
2022-11-30T11:10:36.685Z,35.23
2022-11-30T11:13:05.569Z,40.70
2022-11-30T11:15:34.888Z,42.70
2022-11-30T11:18:25.283Z,40.37
2022-11-30T11:21:06.125Z,39.90
2022-11-30T11:23:37.488Z,36.97
2022-11-30T11:26:06.442Z,44.80
2022-11-30T11:28:36.449Z,39.97
2022-11-30T11:31:17.110Z,43.17
2022-11-30T11:33:54.247Z,36.47
2022-11-30T11:36:28.567Z,38.63
2022-11-30T11:38:57.188Z,38.43
2022-11-30T11:41:28.199Z,39.40
2022-11-30T11:44:05.572Z,38.33
2022-11-30T11:46:36.336Z,43.17
2022-11-30T11:49:07.496Z,38.27
2022-11-30T11:51:37.773Z,38.63
2022-11-30T11:54:17.570Z,37.53
2022-11-30T11:56:46.294Z,49.00
2022-11-30T11:59:19.663Z,47.33
2022-11-30T12:01:54.275Z,40.90
2022-11-30T12:04:45.459Z,51.70
2022-11-30T12:07:23.677Z,47.97
2022-11-30T12:10:49.827Z,48.57
2022-11-30T12:13:13.967Z,49.10
2022-11-30T12:15:52.572Z,46.70
2022-11-30T12:18:24.646Z,51.93
2022-11-30T12:21:01.431Z,48.63
2022-11-30T12:23:47.286Z,58.53
2022-11-30T12:26:26.080Z,58.20
2022-11-30T12:29:06.561Z,53.03
2022-11-30T12:31:44.772Z,65.30
2022-11-30T12:34:18.221Z,60.73
2022-11-30T12:36:57.624Z,59.33
2022-11-30T12:39:33.509Z,62.03
2022-11-30T12:42:06.059Z,61.60
2022-11-30T12:44:47.211Z,63.77
2022-11-30T12:47:29.144Z,62.77
2022-11-30T12:50:18.162Z,56.23
2022-11-30T12:52:55.466Z,59.07
2022-11-30T12:55:32.447Z,60.47
2022-11-30T12:58:06.504Z,67.13
2022-11-30T13:00:42.607Z,66.00
2022-11-30T13:03:46.161Z,58.97
2022-11-30T13:06:18.171Z,65.23
2022-11-30T13:08:58.011Z,60.43
2022-11-30T13:11:33.086Z,63.53
2022-11-30T13:14:01.880Z,65.00
2022-11-30T13:16:31.802Z,69.70
2022-11-30T13:19:08.729Z,72.67
2022-11-30T13:21:43.020Z,77.97
2022-11-30T13:24:21.045Z,69.63
2022-11-30T13:26:53.932Z,80.40
2022-11-30T13:29:48.562Z,62.77
2022-11-30T13:32:48.995Z,67.77
2022-11-30T13:35:38.993Z,68.57
2022-11-30T13:41:08.504Z,75.13
2022-11-30T13:43:41.592Z,80.50
2022-11-30T13:46:16.220Z,78.23
2022-11-30T13:48:45.167Z,72.97
2022-11-30T13:51:14.021Z,86.33
2022-11-30T13:53:42.489Z,83.07
2022-11-30T13:56:35.184Z,84.23
2022-11-30T13:59:42.691Z,84.93
2022-11-30T14:02:59.927Z,86.00
2022-11-30T14:05:40.960Z,74.80
2022-11-30T14:08:35.330Z,83.77
2022-11-30T14:11:42.399Z,74.07
2022-11-30T14:14:45.825Z,82.57
2022-11-30T14:17:22.979Z,78.77
2022-11-30T14:19:53.358Z,88.63
2022-11-30T14:22:21.934Z,77.50
2022-11-30T14:24:51.260Z,78.40
2022-11-30T14:27:24.156Z,81.93
2022-11-30T14:29:55.633Z,72.63
2022-11-30T14:32:37.784Z,80.90
2022-11-30T14:35:10.557Z,77.83
2022-11-30T14:37:43.224Z,85.90
2022-11-30T14:40:19.165Z,72.03
2022-11-30T14:42:53.782Z,69.50
2022-11-30T14:45:24.134Z,80.33
2022-11-30T14:47:53.933Z,76.93
2022-11-30T14:50:26.115Z,75.00
2022-11-30T14:53:04.269Z,81.17
2022-11-30T14:55:39.397Z,76.73
2022-11-30T14:58:24.168Z,90.13
2022-11-30T15:00:52.233Z,73.43
2022-11-30T15:03:25.831Z,79.00
2022-11-30T15:05:55.608Z,75.67
2022-11-30T15:08:24.716Z,73.57
2022-11-30T15:10:54.684Z,71.43
2022-11-30T15:13:23.949Z,78.33
2022-11-30T15:15:53.906Z,87.00
2022-11-30T15:18:23.497Z,81.10
2022-11-30T15:20:55.421Z,71.13
2022-11-30T15:23:23.870Z,78.10
2022-11-30T15:25:55.566Z,86.10
2022-11-30T15:28:28.857Z,80.23
2022-11-30T15:30:59.878Z,82.30
2022-11-30T15:33:34.773Z,70.90
2022-11-30T15:36:22.838Z,76.97
2022-11-30T15:38:52.737Z,74.03
2022-11-30T15:41:22.322Z,74.63
2022-11-30T15:43:55.446Z,82.70
2022-11-30T15:46:38.617Z,80.87
2022-11-30T15:49:17.501Z,80.63
2022-11-30T15:51:47.277Z,74.43
2022-11-30T15:54:17.875Z,77.90
2022-11-30T15:56:57.391Z,76.37
2022-11-30T15:59:29.415Z,80.83
2022-11-30T16:02:08.360Z,71.03
2022-11-30T16:05:21.914Z,77.27
2022-11-30T16:07:52.792Z,81.93
2022-11-30T16:10:23.743Z,82.10
2022-11-30T16:12:55.364Z,69.60
2022-11-30T16:15:27.315Z,77.83
2022-11-30T16:17:57.955Z,69.97
2022-11-30T16:20:25.807Z,82.97
2022-11-30T16:22:53.737Z,69.10
2022-11-30T16:25:23.300Z,70.73
2022-11-30T16:27:51.575Z,71.40
2022-11-30T16:30:22.326Z,70.83
2022-11-30T16:32:51.649Z,66.73
2022-11-30T16:35:22.543Z,60.90
2022-11-30T16:37:50.673Z,68.40
2022-11-30T16:40:18.927Z,73.37
2022-11-30T16:42:49.673Z,64.83
2022-11-30T16:45:20.810Z,65.93
2022-11-30T16:47:48.900Z,64.80
2022-11-30T16:50:19.202Z,63.17
2022-11-30T16:52:47.327Z,57.50
2022-11-30T16:55:17.245Z,65.18
2022-11-30T16:57:45.536Z,61.87
2022-11-30T17:00:15.734Z,59.00
2022-11-30T17:02:46.476Z,62.00
2022-11-30T17:05:16.175Z,59.83
2022-11-30T17:07:45.508Z,64.80
2022-11-30T17:10:13.941Z,67.27
2022-11-30T17:12:41.928Z,63.37
2022-11-30T17:15:15.252Z,65.83
2022-11-30T17:17:43.308Z,72.03
2022-11-30T17:20:12.925Z,71.97
2022-11-30T17:22:41.765Z,67.23
2022-11-30T17:25:15.627Z,70.30
2022-11-30T17:27:43.653Z,64.80
2022-11-30T17:30:12.901Z,67.40
2022-11-30T17:32:40.702Z,72.90
2022-11-30T17:35:09.232Z,61.37
2022-11-30T17:37:37.427Z,60.53
2022-11-30T17:40:06.963Z,65.87
2022-11-30T17:42:36.129Z,65.57
2022-11-30T17:45:04.148Z,66.20
2022-11-30T17:47:32.015Z,69.40
2022-11-30T17:49:59.822Z,63.60
2022-11-30T17:52:27.663Z,61.17
2022-11-30T17:54:55.510Z,57.33
2022-11-30T17:57:23.408Z,59.03
2022-11-30T17:59:52.582Z,63.67
2022-11-30T18:02:20.480Z,67.97
2022-11-30T18:04:48.583Z,56.80
2022-11-30T18:07:16.965Z,63.40
2022-11-30T18:09:44.803Z,57.27
2022-11-30T18:12:12.954Z,60.93
2022-11-30T18:14:40.738Z,64.87
2022-11-30T18:17:09.982Z,57.80
2022-11-30T18:19:37.824Z,62.00
2022-11-30T18:22:05.647Z,64.43
2022-11-30T18:24:33.488Z,62.30
2022-11-30T18:27:01.345Z,60.67
2022-11-30T18:29:29.291Z,55.00
2022-11-30T18:31:57.092Z,58.50
2022-11-30T18:34:26.279Z,55.53
2022-11-30T18:36:54.084Z,57.77
2022-11-30T18:39:24.773Z,62.20
2022-11-30T18:41:52.721Z,59.53
2022-11-30T18:44:20.602Z,56.57
2022-11-30T18:46:48.455Z,62.23
2022-11-30T18:49:17.443Z,57.27
2022-11-30T18:51:46.581Z,56.93
2022-11-30T18:54:14.377Z,53.37
2022-11-30T18:56:42.235Z,61.33
2022-11-30T18:59:16.649Z,53.03
2022-11-30T19:01:44.626Z,47.90
2022-11-30T19:04:12.725Z,55.83
2022-11-30T19:06:42.297Z,53.23
2022-11-30T19:09:26.446Z,56.57
2022-11-30T19:11:54.288Z,53.10
2022-11-30T19:14:22.097Z,48.13
2022-11-30T19:16:49.928Z,54.53
2022-11-30T19:19:17.829Z,50.57
2022-11-30T19:21:47.678Z,52.87
2022-11-30T19:24:16.037Z,51.93
2022-11-30T19:26:45.235Z,49.00
2022-11-30T19:29:13.586Z,52.40
2022-11-30T19:31:41.571Z,47.43
2022-11-30T19:34:12.926Z,45.47
2022-11-30T19:36:42.178Z,50.00
2022-11-30T19:39:11.550Z,53.77
2022-11-30T19:41:39.989Z,47.37
2022-11-30T19:44:14.634Z,50.53
2022-11-30T19:46:43.126Z,52.70
2022-11-30T19:49:11.706Z,52.97
2022-11-30T19:51:39.637Z,49.20
2022-11-30T19:54:07.566Z,52.13
2022-11-30T19:56:35.755Z,53.13
2022-11-30T19:59:05.550Z,49.80
2022-11-30T20:01:35.735Z,52.60
2022-11-30T20:04:04.162Z,46.03
2022-11-30T20:06:34.216Z,48.70
2022-11-30T20:09:02.098Z,49.67
2022-11-30T20:11:29.960Z,49.93
2022-11-30T20:13:58.349Z,51.47
2022-11-30T20:16:26.270Z,49.27
2022-11-30T20:18:56.735Z,53.13
2022-11-30T20:21:26.257Z,54.70
2022-11-30T20:23:57.804Z,53.20
2022-11-30T20:26:27.561Z,50.77
2022-11-30T20:28:55.362Z,48.63
2022-11-30T20:31:25.015Z,46.83
2022-11-30T20:33:52.947Z,49.87
2022-11-30T20:36:22.826Z,48.60
2022-11-30T20:38:50.690Z,49.00
2022-11-30T20:41:19.986Z,49.07
2022-11-30T20:43:47.893Z,46.17
2022-11-30T20:46:17.057Z,44.03
2022-11-30T20:48:45.554Z,46.00
2022-11-30T20:51:29.977Z,49.97
2022-11-30T20:54:00.533Z,50.07
2022-11-30T20:56:28.383Z,47.13
2022-11-30T20:58:56.356Z,47.30
2022-11-30T21:01:24.430Z,45.80
2022-11-30T21:03:52.453Z,46.50
2022-11-30T21:06:20.313Z,51.20
2022-11-30T21:08:48.145Z,46.40
2022-11-30T21:11:20.112Z,48.50
2022-11-30T21:13:50.313Z,49.20
2022-11-30T21:16:26.947Z,45.00
2022-11-30T21:18:56.114Z,46.67
2022-11-30T21:21:25.633Z,46.63
2022-11-30T21:23:53.619Z,42.07
2022-11-30T21:26:25.314Z,48.83
2022-11-30T21:28:55.622Z,46.27
2022-11-30T21:31:24.708Z,42.57
2022-11-30T21:33:53.951Z,54.33
2022-11-30T21:36:23.150Z,51.07
2022-11-30T21:38:56.135Z,48.27
2022-11-30T21:41:30.167Z,45.67
2022-11-30T21:43:58.168Z,50.63
2022-11-30T21:46:26.141Z,48.50
2022-11-30T21:48:54.085Z,44.67
2022-11-30T21:51:23.959Z,41.13
2022-11-30T21:53:54.184Z,48.17
2022-11-30T21:56:26.715Z,45.93
2022-11-30T21:58:57.006Z,50.77
2022-11-30T22:01:27.484Z,44.67
2022-11-30T22:03:55.951Z,42.73
2022-11-30T22:06:25.696Z,49.37
2022-11-30T22:08:53.561Z,45.60
2022-11-30T22:11:22.823Z,43.90
2022-11-30T22:13:51.631Z,44.50
2022-11-30T22:16:23.015Z,49.30
2022-11-30T22:18:55.241Z,51.83
2022-11-30T22:21:25.322Z,49.83
2022-11-30T22:23:55.409Z,52.23
2022-11-30T22:26:25.089Z,54.03
2022-11-30T22:28:54.525Z,64.30
2022-11-30T22:31:25.352Z,57.97
2022-11-30T22:33:54.141Z,66.47
2022-11-30T22:36:25.374Z,64.37
2022-11-30T22:38:55.918Z,75.70
2022-11-30T22:41:24.948Z,72.33
2022-11-30T22:43:53.108Z,74.53
2022-11-30T22:46:25.142Z,78.80
2022-11-30T22:48:53.772Z,68.10
2022-11-30T22:51:23.673Z,74.70
2022-11-30T22:53:52.268Z,74.33
2022-11-30T22:56:25.319Z,76.10
2022-11-30T22:58:55.223Z,91.87
2022-11-30T23:01:26.476Z,75.57
2022-11-30T23:03:56.593Z,84.97
2022-11-30T23:06:25.388Z,87.03
2022-11-30T23:08:54.285Z,79.97
2022-11-30T23:11:24.421Z,90.47
2022-11-30T23:13:52.740Z,82.93
2022-11-30T23:16:20.741Z,92.17
2022-11-30T23:18:53.928Z,95.27
2022-11-30T23:21:25.691Z,89.43
2022-11-30T23:23:55.690Z,90.97
2022-11-30T23:26:25.262Z,103.47
2022-11-30T23:28:54.711Z,87.50
2022-11-30T23:31:33.835Z,100.97
2022-11-30T23:34:07.331Z,91.97
2022-11-30T23:36:35.714Z,89.80
2022-11-30T23:39:05.932Z,82.97
2022-11-30T23:41:33.891Z,83.83
2022-11-30T23:44:01.946Z,89.00
2022-11-30T23:46:29.807Z,95.37
2022-11-30T23:48:57.707Z,85.97
2022-11-30T23:51:27.906Z,84.60
2022-11-30T23:53:55.802Z,85.63
2022-11-30T23:56:24.614Z,77.83
2022-11-30T23:58:52.871Z,82.73
